createdAt,value
2023-02-27T00:04:37.537Z,0.39
2023-02-27T00:09:41.831Z,0.35
2023-02-27T00:14:43.643Z,0.29
2023-02-27T00:19:45.490Z,0.16
2023-02-27T00:24:47.137Z,0.17
2023-02-27T00:29:48.782Z,0.08
2023-02-27T00:34:50.479Z,0.08
2023-02-27T00:39:52.404Z,0.12
2023-02-27T00:44:54.411Z,0.14
2023-02-27T00:49:56.077Z,0.06
2023-02-27T00:54:57.682Z,0.17
2023-02-27T00:59:59.363Z,0.24
2023-02-27T01:05:01.012Z,0.34
2023-02-27T01:10:02.990Z,0.39
2023-02-27T01:15:06.080Z,0.42
2023-02-27T01:20:10.548Z,0.53
2023-02-27T01:25:12.210Z,0.63
2023-02-27T01:30:15.801Z,0.62
2023-02-27T01:35:19.264Z,0.72
2023-02-27T01:40:21.011Z,0.76
2023-02-27T01:45:28.395Z,0.77
2023-02-27T01:50:31.758Z,0.83
2023-02-27T01:55:37.949Z,0.77
2023-02-27T02:00:40.158Z,0.79
2023-02-27T02:05:43.995Z,0.76
2023-02-27T02:10:48.398Z,0.88
2023-02-27T02:16:19.508Z,0.80
2023-02-27T02:21:30.043Z,0.82
2023-02-27T02:26:35.484Z,0.83
2023-02-27T02:32:01.099Z,0.66
2023-02-27T02:37:57.002Z,0.62
2023-02-27T02:43:13.755Z,0.60
2023-02-27T02:48:27.045Z,0.63
2023-02-27T02:53:59.739Z,0.54
2023-02-27T02:59:16.820Z,0.57
2023-02-27T03:04:21.063Z,0.55
2023-02-27T03:09:34.768Z,0.52
2023-02-27T03:14:54.265Z,0.53
2023-02-27T03:20:01.992Z,0.53
2023-02-27T03:25:07.280Z,0.56
2023-02-27T03:30:14.085Z,0.57
2023-02-27T03:35:16.191Z,0.65
2023-02-27T03:40:31.780Z,0.66
2023-02-27T03:45:42.476Z,0.71
2023-02-27T03:50:44.449Z,0.69
2023-02-27T03:55:47.790Z,0.62
2023-02-27T04:00:49.665Z,0.69
2023-02-27T04:05:52.426Z,0.61
2023-02-27T04:11:03.985Z,0.51
2023-02-27T04:16:12.264Z,0.58
2023-02-27T04:21:30.660Z,0.56
2023-02-27T04:26:57.192Z,0.59
2023-02-27T04:32:04.792Z,0.56
2023-02-27T04:37:32.993Z,0.52
2023-02-27T04:42:40.206Z,0.68
2023-02-27T04:47:51.963Z,0.57
2023-02-27T04:53:03.624Z,0.56
2023-02-27T04:58:10.234Z,0.56
2023-02-27T05:03:18.490Z,0.50
2023-02-27T05:08:30.139Z,0.45
2023-02-27T05:13:43.524Z,0.48
2023-02-27T05:18:46.328Z,0.40
2023-02-27T05:23:51.207Z,0.37
2023-02-27T05:29:17.317Z,0.29
2023-02-27T05:34:26.872Z,0.24
2023-02-27T05:39:31.515Z,0.22
2023-02-27T05:44:37.483Z,0.16
2023-02-27T05:49:46.767Z,0.08
2023-02-27T05:55:43.940Z,-0.03
2023-02-27T06:00:58.772Z,-0.11
2023-02-27T06:06:03.702Z,-0.02
2023-02-27T06:11:05.598Z,0.01
2023-02-27T06:16:09.419Z,-0.03
2023-02-27T06:21:13.061Z,0.00
2023-02-27T06:26:15.704Z,-0.03
2023-02-27T06:31:17.461Z,0.03
2023-02-27T06:36:19.103Z,-0.01
2023-02-27T06:41:21.288Z,0.11
2023-02-27T06:46:22.931Z,0.30
2023-02-27T06:51:24.720Z,0.35
2023-02-27T06:56:26.601Z,0.28
2023-02-27T07:01:28.600Z,0.34
2023-02-27T07:07:35.453Z,0.46
2023-02-27T07:11:51.811Z,0.54
2023-02-27T07:16:56.339Z,0.64
2023-02-27T07:21:58.300Z,0.77
2023-02-27T07:26:59.983Z,0.71
2023-02-27T07:32:02.304Z,0.83
2023-02-27T07:37:04.084Z,0.89
2023-02-27T07:42:06.097Z,0.96
2023-02-27T07:47:08.996Z,1.09
2023-02-27T07:52:11.298Z,1.24
2023-02-27T07:57:13.136Z,1.37
2023-02-27T08:02:14.769Z,1.54
2023-02-27T08:07:16.568Z,1.61
2023-02-27T08:12:18.447Z,1.67
2023-02-27T08:17:20.041Z,1.79
2023-02-27T08:22:21.752Z,1.82
2023-02-27T08:27:23.703Z,2.01
2023-02-27T08:32:25.488Z,2.02
2023-02-27T08:37:28.834Z,2.05
2023-02-27T08:42:30.739Z,2.02
2023-02-27T08:47:32.394Z,1.98
2023-02-27T08:52:34.066Z,2.09
2023-02-27T08:57:35.856Z,2.31
2023-02-27T09:02:37.465Z,2.30
2023-02-27T09:07:39.151Z,2.46
2023-02-27T09:12:40.965Z,2.49
2023-02-27T09:17:42.747Z,2.54
2023-02-27T09:22:44.482Z,2.80
2023-02-27T09:27:46.456Z,2.58
2023-02-27T09:32:48.193Z,2.37
2023-02-27T09:37:50.031Z,2.48
2023-02-27T09:42:53.891Z,2.42
2023-02-27T09:48:15.924Z,2.46
2023-02-27T09:53:31.283Z,2.50
2023-02-27T09:58:43.847Z,2.42
2023-02-27T10:03:54.637Z,2.64
2023-02-27T10:09:30.732Z,2.87
2023-02-27T10:14:53.708Z,2.63
2023-02-27T10:19:58.368Z,2.84
2023-02-27T10:25:18.109Z,3.02
2023-02-27T10:30:34.616Z,2.94
2023-02-27T10:35:43.064Z,2.78
2023-02-27T10:40:47.840Z,2.80
2023-02-27T10:45:49.638Z,2.92
2023-02-27T10:50:52.300Z,3.02
2023-02-27T10:56:06.196Z,3.32
2023-02-27T11:01:10.559Z,3.61
2023-02-27T11:06:22.341Z,3.47
2023-02-27T11:11:28.624Z,3.45
2023-02-27T11:16:48.013Z,3.01
2023-02-27T11:22:07.604Z,2.91
2023-02-27T11:27:18.989Z,3.00
2023-02-27T11:32:20.865Z,3.15
2023-02-27T11:37:50.886Z,3.42
2023-02-27T11:42:56.233Z,3.69
2023-02-27T11:48:02.191Z,3.62
2023-02-27T11:53:19.862Z,3.58
2023-02-27T11:58:25.669Z,3.60
2023-02-27T12:03:59.804Z,3.47
2023-02-27T12:09:07.526Z,3.22
2023-02-27T12:14:09.076Z,3.37
2023-02-27T12:19:22.424Z,3.48
2023-02-27T12:24:31.287Z,3.34
2023-02-27T12:29:41.977Z,3.28
2023-02-27T12:34:50.251Z,3.45
2023-02-27T12:39:55.568Z,3.31
2023-02-27T12:45:15.561Z,3.48
2023-02-27T12:50:19.563Z,3.38
2023-02-27T12:55:30.935Z,3.54
2023-02-27T13:00:59.841Z,3.62
2023-02-27T13:06:18.864Z,3.60
2023-02-27T13:11:43.435Z,3.64
2023-02-27T13:16:53.864Z,3.78
2023-02-27T13:22:10.948Z,3.95
2023-02-27T13:27:22.322Z,3.77
2023-02-27T13:32:44.399Z,3.78
2023-02-27T13:37:55.345Z,3.67
2023-02-27T13:43:20.621Z,3.81
2023-02-27T13:48:41.747Z,3.84
2023-02-27T13:53:43.470Z,3.87
2023-02-27T13:58:45.378Z,3.92
2023-02-27T14:04:02.880Z,3.87
2023-02-27T14:09:15.244Z,3.83
2023-02-27T14:14:34.985Z,4.06
2023-02-27T14:19:46.588Z,3.91
2023-02-27T14:25:02.949Z,3.91
2023-02-27T14:30:10.305Z,3.78
2023-02-27T14:35:16.224Z,3.65
2023-02-27T14:40:29.888Z,3.68
2023-02-27T14:45:32.486Z,3.75
2023-02-27T14:50:37.457Z,3.75
2023-02-27T14:55:39.109Z,3.83
2023-02-27T15:00:42.418Z,3.80
2023-02-27T15:05:45.545Z,3.77
2023-02-27T15:10:48.223Z,3.84
2023-02-27T15:15:52.335Z,3.91
2023-02-27T15:20:59.232Z,4.00
2023-02-27T15:26:00.878Z,3.93
2023-02-27T15:31:02.798Z,3.90
2023-02-27T15:36:05.442Z,3.83
2023-02-27T15:41:08.623Z,3.68
2023-02-27T15:46:10.358Z,3.46
2023-02-27T15:51:12.295Z,3.56
2023-02-27T15:56:15.291Z,3.54
2023-02-27T16:01:23.135Z,3.59
2023-02-27T16:06:30.628Z,3.58
2023-02-27T16:11:37.481Z,3.42
2023-02-27T16:16:39.208Z,3.41
2023-02-27T16:22:06.756Z,3.41
2023-02-27T16:27:26.632Z,3.40
2023-02-27T16:32:29.426Z,3.36
2023-02-27T16:37:31.185Z,3.25
2023-02-27T16:42:32.872Z,3.14
2023-02-27T16:47:34.489Z,3.24
2023-02-27T16:52:36.385Z,3.14
2023-02-27T16:57:38.003Z,3.09
2023-02-27T17:02:39.826Z,3.06
2023-02-27T17:07:42.582Z,3.15
2023-02-27T17:12:44.403Z,3.12
2023-02-27T17:17:46.219Z,3.09
2023-02-27T17:22:47.855Z,3.14
2023-02-27T17:27:50.164Z,3.00
2023-02-27T17:32:51.959Z,2.99
2023-02-27T17:37:53.965Z,2.97
2023-02-27T17:42:55.562Z,2.99
2023-02-27T17:47:58.209Z,2.94
2023-02-27T17:53:00.087Z,2.86
2023-02-27T17:58:01.682Z,2.77
2023-02-27T18:03:03.342Z,2.69
2023-02-27T18:08:05.234Z,2.62
2023-02-27T18:13:06.848Z,2.62
2023-02-27T18:18:08.547Z,2.67
2023-02-27T18:23:10.540Z,2.49
2023-02-27T18:28:12.417Z,2.47
2023-02-27T18:33:14.043Z,2.49
2023-02-27T18:38:16.378Z,2.56
2023-02-27T18:43:18.012Z,2.49
2023-02-27T18:48:20.082Z,2.43
2023-02-27T18:53:21.878Z,2.44
2023-02-27T18:58:23.456Z,2.33
2023-02-27T19:03:27.303Z,2.22
2023-02-27T19:08:29.315Z,2.13
2023-02-27T19:13:31.167Z,2.29
2023-02-27T19:18:32.808Z,2.22
2023-02-27T19:23:36.205Z,2.19
2023-02-27T19:28:37.925Z,2.22
2023-02-27T19:33:40.439Z,2.22
2023-02-27T19:38:42.347Z,2.24
2023-02-27T19:43:44.063Z,2.19
2023-02-27T19:48:46.277Z,2.19
2023-02-27T19:53:48.602Z,2.11
2023-02-27T19:58:50.996Z,2.10
2023-02-27T20:03:53.225Z,2.13
2023-02-27T20:08:55.925Z,2.04
2023-02-27T20:13:57.983Z,2.05
2023-02-27T20:18:59.962Z,2.15
2023-02-27T20:24:01.927Z,2.18
2023-02-27T20:29:10.053Z,2.24
2023-02-27T20:34:15.666Z,2.38
2023-02-27T20:39:18.503Z,2.38
2023-02-27T20:44:20.123Z,2.35
2023-02-27T20:49:22.775Z,2.39
2023-02-27T20:54:25.212Z,2.15
2023-02-27T20:59:26.821Z,1.66
2023-02-27T21:04:42.489Z,1.62
2023-02-27T21:09:45.266Z,1.53
2023-02-27T21:14:49.360Z,1.33
2023-02-27T21:19:51.564Z,1.36
2023-02-27T21:24:53.740Z,1.39
2023-02-27T21:29:55.699Z,1.62
2023-02-27T21:34:57.329Z,1.46
2023-02-27T21:40:00.485Z,1.49
2023-02-27T21:45:02.309Z,1.68
2023-02-27T21:50:14.093Z,1.78
2023-02-27T21:55:16.344Z,1.77
2023-02-27T22:00:18.889Z,1.75
2023-02-27T22:05:21.264Z,1.69
2023-02-27T22:10:22.910Z,1.69
2023-02-27T22:15:24.681Z,1.63
2023-02-27T22:20:26.348Z,1.37
2023-02-27T22:25:28.586Z,1.27
2023-02-27T22:30:30.564Z,1.25
2023-02-27T22:35:32.569Z,1.15
2023-02-27T22:40:36.133Z,1.05
2023-02-27T22:45:37.718Z,1.18
2023-02-27T22:50:39.506Z,1.09
2023-02-27T22:55:41.334Z,1.16
2023-02-27T23:00:42.951Z,1.06
2023-02-27T23:05:46.526Z,0.87
2023-02-27T23:10:48.203Z,0.89
2023-02-27T23:15:49.907Z,0.73
2023-02-27T23:20:51.634Z,0.78
2023-02-27T23:25:53.660Z,0.69
2023-02-27T23:30:55.270Z,0.81
2023-02-27T23:35:57.749Z,0.75
2023-02-27T23:41:07.684Z,0.64
2023-02-27T23:46:12.027Z,0.56
2023-02-27T23:51:14.918Z,0.47
2023-02-27T23:56:18.645Z,0.56
